Time;durP1;ratioP1;P1;durP2;ratioP2;P2;SDS_P1;SDS_P2;PMS_P1;PMS_P2;Temp;Humidity;BMP_temperature;BMP_pressure;BME280_temperature;BME280_humidity;BME280_pressure;Samples;Min_cycle;Max_cycle;Signal;HPM_P1;HPM_P2
2024/01/01 00:01:23;;;;;;;51.20;25.17;;;9.60;99.90;;;;;;5004025;28;20045;-76
2024/01/01 00:03:49;;;;;;;37.67;19.92;;;9.60;99.90;;;;;;5002861;28;20044;-75
2024/01/01 00:06:14;;;;;;;35.58;15.65;;;9.70;99.90;;;;;;4967527;28;20069;-84
2024/01/01 00:08:40;;;;;;;27.02;12.90;;;9.60;99.90;;;;;;5003934;28;20105;-78
2024/01/01 00:11:07;;;;;;;36.65;16.13;;;9.70;99.90;;;;;;4984961;28;20031;-74
2024/01/01 00:13:32;;;;;;;25.73;11.40;;;9.70;99.90;;;;;;5002418;28;20038;-78
2024/01/01 00:15:58;;;;;;;22.45;9.85;;;9.60;99.90;;;;;;4975437;28;20038;-74
2024/01/01 00:18:24;;;;;;;21.80;9.13;;;9.60;99.90;;;;;;4958985;28;20176;-81
2024/01/01 00:20:49;;;;;;;19.38;6.95;;;9.70;99.90;;;;;;4974628;28;20888;-79
2024/01/01 00:23:15;;;;;;;22.98;9.73;;;9.60;99.90;;;;;;4994634;28;20362;-81
2024/01/01 00:25:40;;;;;;;20.73;9.40;;;9.60;99.90;;;;;;4994027;28;20039;-80
2024/01/01 00:28:07;;;;;;;22.90;10.15;;;9.60;99.90;;;;;;4975188;28;20406;-78
2024/01/01 00:30:33;;;;;;;22.58;9.52;;;9.60;99.90;;;;;;4992211;28;20413;-79
2024/01/01 00:32:59;;;;;;;18.17;8.88;;;9.60;99.90;;;;;;4993050;28;20046;-78
2024/01/01 00:35:25;;;;;;;24.33;11.20;;;9.50;99.90;;;;;;4963382;28;20479;-81
2024/01/01 00:37:50;;;;;;;16.88;8.15;;;9.50;99.90;;;;;;4979116;28;20046;-84
2024/01/01 00:40:16;;;;;;;14.25;5.65;;;9.50;99.90;;;;;;4996224;28;20384;-83
2024/01/01 00:42:47;;;;;;;14.82;6.22;;;9.40;99.90;;;;;;4997193;28;20034;-83
2024/01/01 00:45:12;;;;;;;12.02;4.72;;;9.40;99.90;;;;;;4963547;28;20435;-83
2024/01/01 00:47:38;;;;;;;14.65;5.18;;;9.40;99.90;;;;;;4996917;28;20044;-79
2024/01/01 00:50:04;;;;;;;12.10;5.53;;;9.40;99.90;;;;;;4979511;28;20045;-83
2024/01/01 00:52:30;;;;;;;12.63;5.47;;;9.40;99.90;;;;;;4979062;28;20064;-84
2024/01/01 00:54:56;;;;;;;10.43;3.47;;;9.30;99.90;;;;;;4979676;28;20073;-81
2024/01/01 00:57:21;;;;;;;10.05;2.83;;;9.30;99.90;;;;;;4996587;28;20038;-81
2024/01/01 00:59:47;;;;;;;13.90;3.22;;;9.30;99.90;;;;;;4996181;28;20046;-85
2024/01/01 01:02:13;;;;;;;9.45;2.85;;;9.30;99.90;;;;;;4962827;28;20132;-75
2024/01/01 01:04:42;;;;;;;6.90;2.05;;;9.30;99.90;;;;;;4996333;28;20110;-79
2024/01/01 01:07:08;;;;;;;6.03;1.98;;;9.30;99.90;;;;;;4965067;28;20038;-82
2024/01/01 01:09:33;;;;;;;9.45;2.90;;;9.30;99.90;;;;;;4995932;28;20526;-80
2024/01/01 01:11:59;;;;;;;5.68;2.42;;;9.30;99.90;;;;;;4998305;28;20113;-84
2024/01/01 01:14:25;;;;;;;4.10;1.13;;;9.30;99.90;;;;;;4975341;28;20038;-81
2024/01/01 01:16:50;;;;;;;9.25;1.63;;;9.20;99.90;;;;;;4979415;28;20481;-80
2024/01/01 01:19:16;;;;;;;3.55;0.70;;;9.20;99.90;;;;;;4979052;28;20050;-82
2024/01/01 01:21:42;;;;;;;8.30;1.52;;;9.20;99.90;;;;;;4979169;28;20042;-83
2024/01/01 01:24:07;;;;;;;6.07;1.00;;;9.10;99.90;;;;;;4962453;28;20046;-84
2024/01/01 01:26:33;;;;;;;3.83;1.58;;;9.10;99.90;;;;;;4992257;28;20030;-84
2024/01/01 01:29:02;;;;;;;5.53;1.80;;;9.10;99.90;;;;;;4978855;28;20385;-82
2024/01/01 01:31:27;;;;;;;4.70;1.00;;;9.00;99.90;;;;;;4963062;28;20036;-82
2024/01/01 01:33:53;;;;;;;8.10;1.50;;;8.90;99.90;;;;;;4961647;28;20046;-82
2024/01/01 01:36:19;;;;;;;3.17;1.38;;;8.80;99.90;;;;;;4979850;28;20042;-83
2024/01/01 01:38:44;;;;;;;4.90;1.63;;;8.80;99.90;;;;;;4962343;28;20091;-82
2024/01/01 01:41:10;;;;;;;6.13;1.48;;;8.80;99.90;;;;;;4979356;28;20439;-82
2024/01/01 01:43:38;;;;;;;5.10;1.30;;;8.70;99.90;;;;;;4978093;28;20038;-83
2024/01/01 01:46:05;;;;;;;4.32;0.80;;;8.70;99.90;;;;;;4996238;28;20031;-83
2024/01/01 01:48:31;;;;;;;3.25;0.80;;;8.70;99.90;;;;;;4978069;28;20399;-83
2024/01/01 01:50:57;;;;;;;4.63;0.80;;;8.60;99.90;;;;;;4963876;28;20038;-81
2024/01/01 01:53:24;;;;;;;2.60;0.73;;;8.60;99.90;;;;;;4962072;28;20095;-81
2024/01/01 01:55:52;;;;;;;5.68;1.08;;;8.70;99.90;;;;;;4961998;28;20059;-83
2024/01/01 01:58:17;;;;;;;4.30;1.00;;;8.70;99.90;;;;;;4978544;28;20084;-82
2024/01/01 02:00:46;;;;;;;6.25;0.85;;;8.60;99.90;;;;;;4978717;28;20435;-83
2024/01/01 02:03:12;;;;;;;6.00;1.23;;;8.60;99.90;;;;;;4995933;28;20026;-82
2024/01/01 02:05:38;;;;;;;6.78;1.10;;;8.60;99.90;;;;;;4978436;28;20136;-83
2024/01/01 02:08:05;;;;;;;7.93;1.35;;;8.50;99.90;;;;;;4995300;28;20027;-82
2024/01/01 02:10:31;;;;;;;6.90;1.33;;;8.50;99.90;;;;;;4962166;28;20034;-83
2024/01/01 02:12:57;;;;;;;4.63;1.25;;;8.50;99.90;;;;;;4978553;28;20046;-83
2024/01/01 02:15:22;;;;;;;9.60;1.60;;;8.50;99.90;;;;;;4993806;28;20076;-83
2024/01/01 02:17:49;;;;;;;6.32;1.50;;;8.50;99.90;;;;;;4995264;28;20392;-83
2024/01/01 02:20:15;;;;;;;6.47;1.98;;;8.40;99.90;;;;;;4977479;28;20057;-82
2024/01/01 02:22:41;;;;;;;9.30;1.92;;;8.40;99.90;;;;;;4995325;28;20058;-83
2024/01/01 02:25:09;;;;;;;7.32;1.70;;;8.40;99.90;;;;;;4961376;28;20050;-83
2024/01/01 02:27:38;;;;;;;7.03;1.77;;;8.40;99.90;;;;;;4977662;28;20093;-83
2024/01/01 02:30:10;;;;;;;3.40;1.00;;;8.40;99.90;;;;;;4995157;28;20491;-83
2024/01/01 02:32:39;;;;;;;6.93;1.30;;;8.40;99.90;;;;;;4962444;28;20030;-82
2024/01/01 02:35:08;;;;;;;7.10;1.30;;;8.40;99.90;;;;;;4961969;28;20043;-83
2024/01/01 02:37:34;;;;;;;6.57;1.55;;;8.40;99.90;;;;;;4977967;28;20031;-83
2024/01/01 02:40:01;;;;;;;9.57;1.85;;;8.40;99.90;;;;;;4959027;28;20130;-84
2024/01/01 02:42:30;;;;;;;9.82;1.80;;;8.40;99.90;;;;;;4977781;28;20047;-83
2024/01/01 02:44:56;;;;;;;10.05;3.33;;;8.40;99.90;;;;;;4978345;28;20042;-83
2024/01/01 02:47:21;;;;;;;11.30;3.83;;;8.40;99.90;;;;;;4993615;28;20026;-83
2024/01/01 02:49:47;;;;;;;8.95;3.10;;;8.40;99.90;;;;;;4977546;28;20477;-83
2024/01/01 02:52:13;;;;;;;8.75;2.35;;;8.40;99.90;;;;;;4960970;28;20045;-81
2024/01/01 02:54:38;;;;;;;8.90;1.60;;;8.40;99.90;;;;;;4960933;28;20123;-83
2024/01/01 02:57:04;;;;;;;12.75;1.58;;;8.40;99.90;;;;;;4994107;28;20424;-82
2024/01/01 02:59:30;;;;;;;9.38;1.52;;;8.30;99.90;;;;;;4976847;28;20392;-82
2024/01/01 03:01:56;;;;;;;14.73;1.70;;;8.30;99.90;;;;;;4961263;28;20064;-82
2024/01/01 03:04:22;;;;;;;12.10;1.52;;;8.30;99.90;;;;;;4976938;28;20480;-82
2024/01/01 03:06:47;;;;;;;5.30;1.23;;;8.30;99.90;;;;;;4976805;28;20038;-82
2024/01/01 03:09:13;;;;;;;14.23;2.75;;;8.20;99.90;;;;;;4969807;28;20061;-82
2024/01/01 03:11:40;;;;;;;12.75;1.48;;;8.20;99.90;;;;;;4961180;28;20037;-83
2024/01/01 03:14:05;;;;;;;9.02;1.20;;;8.20;99.90;;;;;;4960655;28;20484;-82
2024/01/01 03:16:32;;;;;;;11.65;1.30;;;8.20;99.90;;;;;;4960218;28;20035;-82
2024/01/01 03:18:58;;;;;;;8.55;1.42;;;8.20;99.90;;;;;;4957364;28;20078;-82
2024/01/01 03:21:24;;;;;;;9.02;1.38;;;8.30;99.90;;;;;;4974750;28;20062;-80
2024/01/01 03:23:50;;;;;;;10.43;1.30;;;8.30;99.90;;;;;;4973359;28;20070;-79
2024/01/01 03:26:17;;;;;;;11.82;2.05;;;8.30;99.90;;;;;;4957469;28;20105;-79
2024/01/01 03:28:43;;;;;;;11.13;1.25;;;8.30;99.90;;;;;;4973624;28;20062;-79
2024/01/01 03:31:09;;;;;;;9.13;1.25;;;8.30;99.90;;;;;;4973661;28;20033;-80
2024/01/01 03:33:35;;;;;;;13.98;1.55;;;8.30;99.90;;;;;;4966009;28;20047;-80
2024/01/01 03:36:01;;;;;;;11.05;1.15;;;8.30;99.90;;;;;;4954052;28;20039;-81
2024/01/01 03:38:28;;;;;;;15.60;1.55;;;8.30;99.90;;;;;;4951232;28;20039;-81
2024/01/01 03:40:53;;;;;;;9.65;1.17;;;8.30;99.90;;;;;;4973376;28;20162;-80
2024/01/01 03:43:19;;;;;;;8.75;1.38;;;8.30;99.90;;;;;;4973104;28;20125;-80
2024/01/01 03:45:46;;;;;;;12.82;1.65;;;8.30;99.90;;;;;;4973396;28;20062;-80
2024/01/01 03:48:12;;;;;;;11.57;1.60;;;8.30;99.90;;;;;;4972465;28;20066;-81
2024/01/01 03:50:38;;;;;;;11.23;1.67;;;8.30;99.90;;;;;;4975009;28;20023;-81
2024/01/01 03:53:04;;;;;;;10.05;1.20;;;8.30;99.90;;;;;;4956820;28;20038;-81
2024/01/01 03:55:30;;;;;;;13.77;1.33;;;8.30;99.90;;;;;;4973388;28;20035;-81
2024/01/01 03:57:56;;;;;;;14.07;2.05;;;8.30;99.90;;;;;;4956769;28;20178;-80
2024/01/01 04:00:22;;;;;;;11.50;2.08;;;8.30;99.90;;;;;;4973081;28;20122;-80
2024/01/01 04:02:48;;;;;;;10.40;1.73;;;8.30;99.90;;;;;;4972797;28;20439;-80
2024/01/01 04:05:14;;;;;;;9.48;1.17;;;8.30;99.90;;;;;;4957476;28;20062;-80
2024/01/01 04:07:40;;;;;;;12.00;1.10;;;8.30;99.90;;;;;;4957217;28;20122;-81
2024/01/01 04:10:08;;;;;;;13.23;1.27;;;8.30;99.90;;;;;;4963276;28;20042;-80
2024/01/01 04:12:34;;;;;;;13.40;1.55;;;8.30;99.90;;;;;;4980582;28;20039;-81
2024/01/01 04:15:00;;;;;;;12.50;2.47;;;8.40;99.90;;;;;;4980752;28;20504;-80
2024/01/01 04:17:25;;;;;;;13.32;1.67;;;8.40;99.90;;;;;;4978834;28;20472;-81
2024/01/01 04:19:51;;;;;;;11.50;1.33;;;8.30;99.90;;;;;;4962270;28;20062;-81
2024/01/01 04:22:18;;;;;;;11.10;1.70;;;8.30;99.90;;;;;;4980315;28;20113;-82
2024/01/01 04:24:44;;;;;;;10.57;1.33;;;8.30;99.90;;;;;;4979408;28;20401;-80
2024/01/01 04:27:09;;;;;;;14.55;1.08;;;8.30;99.90;;;;;;4979123;28;20037;-81
2024/01/01 04:29:36;;;;;;;10.70;1.48;;;8.30;99.90;;;;;;4980034;28;20027;-81
2024/01/01 04:32:01;;;;;;;11.80;1.60;;;8.30;99.90;;;;;;4978899;28;20039;-81
2024/01/01 04:34:27;;;;;;;12.32;1.52;;;8.40;99.90;;;;;;4963276;28;20053;-81
2024/01/01 04:36:53;;;;;;;12.25;1.33;;;8.40;99.90;;;;;;4979097;28;20063;-81
2024/01/01 04:39:18;;;;;;;9.10;0.85;;;8.40;99.90;;;;;;4979107;28;20062;-81
2024/01/01 04:41:44;;;;;;;13.20;1.42;;;8.40;99.90;;;;;;4978886;28;20041;-81
2024/01/01 04:44:10;;;;;;;11.98;1.45;;;8.50;99.90;;;;;;4979171;28;20031;-81
2024/01/01 04:46:35;;;;;;;13.32;1.65;;;8.50;99.90;;;;;;4978724;28;20035;-82
2024/01/01 04:49:01;;;;;;;15.85;1.35;;;8.50;99.90;;;;;;4980138;28;20046;-81
2024/01/01 04:51:27;;;;;;;8.52;0.93;;;8.50;99.90;;;;;;4979077;28;20165;-82
2024/01/01 04:53:52;;;;;;;13.48;1.35;;;8.40;99.90;;;;;;4963055;28;20531;-81
2024/01/01 04:56:21;;;;;;;10.73;1.13;;;8.40;99.90;;;;;;4978432;28;20042;-82
2024/01/01 04:58:47;;;;;;;11.27;1.65;;;8.40;99.90;;;;;;4963414;28;20035;-82
2024/01/01 05:01:13;;;;;;;9.73;1.40;;;8.50;99.90;;;;;;4962453;28;20035;-82
2024/01/01 05:03:38;;;;;;;9.73;1.15;;;8.40;99.90;;;;;;4978819;28;20041;-82
2024/01/01 05:06:04;;;;;;;9.57;1.15;;;8.40;99.90;;;;;;4978339;28;20066;-81
2024/01/01 05:08:31;;;;;;;10.80;1.27;;;8.40;99.90;;;;;;4978678;28;20046;-81
2024/01/01 05:10:57;;;;;;;11.77;1.73;;;8.40;99.90;;;;;;4979096;28;20034;-81
2024/01/01 05:13:22;;;;;;;10.98;1.92;;;8.30;99.90;;;;;;4978416;28;20485;-81
2024/01/01 05:15:48;;;;;;;10.57;1.20;;;8.30;99.90;;;;;;4979132;28;20380;-80
2024/01/01 05:18:14;;;;;;;12.98;1.17;;;8.30;99.90;;;;;;4979238;28;20035;-82
2024/01/01 05:20:40;;;;;;;15.93;1.25;;;8.30;99.90;;;;;;4996669;28;20480;-80
2024/01/01 05:23:05;;;;;;;8.85;1.20;;;8.30;99.90;;;;;;4963191;28;20418;-83
2024/01/01 05:25:31;;;;;;;11.50;1.65;;;8.30;99.90;;;;;;4978766;28;20046;-80
2024/01/01 05:27:57;;;;;;;13.60;1.33;;;8.30;99.90;;;;;;4962671;28;20499;-83
2024/01/01 05:30:23;;;;;;;14.98;1.48;;;8.30;99.90;;;;;;4962896;28;20088;-82
2024/01/01 05:32:49;;;;;;;12.43;1.58;;;8.20;99.90;;;;;;4973368;28;20102;-82
2024/01/01 05:35:14;;;;;;;10.07;0.90;;;8.20;99.90;;;;;;4996425;28;20030;-82
2024/01/01 05:37:40;;;;;;;8.90;0.90;;;8.20;99.90;;;;;;4978090;28;20472;-82
2024/01/01 05:40:06;;;;;;;11.27;1.42;;;8.20;99.90;;;;;;4978988;28;20076;-82
2024/01/01 05:42:32;;;;;;;12.35;1.42;;;8.20;99.90;;;;;;4974772;28;20122;-80
2024/01/01 05:44:57;;;;;;;10.88;1.35;;;8.20;99.90;;;;;;4959463;28;20121;-81
2024/01/01 05:47:23;;;;;;;10.35;1.10;;;8.20;99.90;;;;;;4977742;28;20039;-82
2024/01/01 05:49:49;;;;;;;13.02;1.73;;;8.20;99.90;;;;;;4978281;28;20128;-80
2024/01/01 05:52:17;;;;;;;10.93;1.10;;;8.20;99.90;;;;;;4995626;28;20081;-80
2024/01/01 05:54:43;;;;;;;13.07;1.00;;;8.20;99.90;;;;;;4962769;28;20038;-81
2024/01/01 05:57:09;;;;;;;14.93;2.20;;;8.20;99.90;;;;;;4961890;28;20037;-81
2024/01/01 05:59:35;;;;;;;12.70;1.23;;;8.20;99.90;;;;;;4978768;28;20109;-80
2024/01/01 06:02:00;;;;;;;9.35;1.33;;;8.20;99.90;;;;;;4977539;28;20105;-80
2024/01/01 06:04:26;;;;;;;13.68;1.60;;;8.20;99.90;;;;;;4978729;28;20030;-81
2024/01/01 06:06:51;;;;;;;11.80;1.45;;;8.20;99.90;;;;;;4961928;28;20041;-81
2024/01/01 06:09:18;;;;;;;13.93;1.13;;;8.20;99.90;;;;;;4962093;28;20038;-80
2024/01/01 06:11:44;;;;;;;6.15;1.02;;;8.20;99.90;;;;;;4993947;28;20034;-80
2024/01/01 06:14:10;;;;;;;10.52;1.25;;;8.20;99.90;;;;;;4977442;28;20124;-80
2024/01/01 06:16:35;;;;;;;10.43;1.17;;;8.20;99.90;;;;;;4962154;28;20034;-80
2024/01/01 06:19:01;;;;;;;10.13;1.20;;;8.20;99.90;;;;;;4961123;28;20059;-81
2024/01/01 06:21:27;;;;;;;16.30;1.58;;;8.20;99.90;;;;;;4995154;28;20484;-80
2024/01/01 06:23:52;;;;;;;12.80;1.35;;;8.20;99.90;;;;;;4977929;28;20073;-80
2024/01/01 06:26:18;;;;;;;12.23;1.52;;;8.10;99.90;;;;;;4961456;28;20030;-81
2024/01/01 06:28:43;;;;;;;9.68;1.27;;;8.10;99.90;;;;;;4978352;28;20117;-80
2024/01/01 06:31:09;;;;;;;14.32;1.50;;;8.20;99.90;;;;;;4977878;28;20040;-78
2024/01/01 06:33:35;;;;;;;11.90;1.25;;;8.20;99.90;;;;;;4995176;28;20034;-81
2024/01/01 06:36:01;;;;;;;11.00;1.20;;;8.20;99.90;;;;;;4977349;28;20523;-81
2024/01/01 06:38:26;;;;;;;18.42;2.85;;;8.20;99.90;;;;;;4978249;28;20145;-81
2024/01/01 06:40:52;;;;;;;11.13;1.58;;;8.10;99.90;;;;;;4977393;28;20034;-81
2024/01/01 06:43:17;;;;;;;9.65;0.77;;;8.10;99.90;;;;;;4977520;28;20080;-81
2024/01/01 06:45:43;;;;;;;10.55;1.52;;;8.10;99.90;;;;;;4994842;28;20061;-81
2024/01/01 06:48:12;;;;;;;11.75;1.33;;;8.10;99.90;;;;;;4976639;28;20431;-81
2024/01/01 06:50:37;;;;;;;11.00;1.75;;;8.20;99.90;;;;;;4977954;28;20035;-80
2024/01/01 06:53:03;;;;;;;6.68;0.90;;;8.10;99.90;;;;;;4961571;28;20600;-80
2024/01/01 06:55:30;;;;;;;10.60;1.13;;;8.10;99.90;;;;;;4993810;28;20124;-79
2024/01/01 06:57:58;;;;;;;6.63;0.82;;;8.10;99.90;;;;;;4961495;28;20113;-81
2024/01/01 07:00:23;;;;;;;9.82;1.27;;;8.10;99.90;;;;;;4961136;28;20046;-81
2024/01/01 07:02:49;;;;;;;12.90;1.42;;;8.10;99.90;;;;;;4994663;28;20114;-81
2024/01/01 07:05:15;;;;;;;10.75;1.05;;;8.10;99.90;;;;;;4976918;28;20476;-81
2024/01/01 07:07:40;;;;;;;13.45;1.40;;;8.10;99.90;;;;;;4961510;28;20034;-81
2024/01/01 07:10:06;;;;;;;12.95;1.73;;;8.10;99.90;;;;;;4976703;28;20050;-82
2024/01/01 07:12:32;;;;;;;13.57;1.40;;;8.10;99.90;;;;;;4977512;28;20035;-82
2024/01/01 07:14:58;;;;;;;13.52;2.03;;;8.10;99.90;;;;;;4976171;28;20408;-83
2024/01/01 07:17:23;;;;;;;13.30;1.50;;;8.10;99.90;;;;;;4976875;28;20037;-82
2024/01/01 07:19:49;;;;;;;12.82;1.35;;;8.20;99.90;;;;;;4961104;28;20128;-81
2024/01/01 07:22:15;;;;;;;13.20;1.63;;;8.10;99.90;;;;;;4976929;28;20066;-81
2024/01/01 07:24:41;;;;;;;16.15;1.95;;;8.20;99.90;;;;;;4976869;28;20069;-81
2024/01/01 07:27:06;;;;;;;12.20;1.77;;;8.10;99.90;;;;;;4975604;28;20062;-81
2024/01/01 07:29:32;;;;;;;11.85;1.45;;;8.10;99.90;;;;;;4976939;28;20038;-82
2024/01/01 07:31:58;;;;;;;10.35;1.65;;;8.10;99.90;;;;;;4993275;28;20081;-81
2024/01/01 07:34:25;;;;;;;10.45;1.33;;;8.10;99.90;;;;;;4994187;28;20035;-82
2024/01/01 07:36:51;;;;;;;10.77;1.67;;;8.10;99.90;;;;;;4994274;28;20038;-82
2024/01/01 07:39:20;;;;;;;10.63;2.42;;;8.10;99.90;;;;;;4976455;28;20053;-82
2024/01/01 07:41:50;;;;;;;15.93;1.90;;;8.10;99.90;;;;;;4960813;28;20030;-81
2024/01/01 07:44:16;;;;;;;10.75;1.83;;;8.10;99.90;;;;;;4976187;28;20030;-81
2024/01/01 07:46:42;;;;;;;14.00;1.58;;;8.10;99.90;;;;;;4994076;28;20579;-81
2024/01/01 07:49:08;;;;;;;10.95;1.63;;;8.10;99.90;;;;;;4993707;28;20039;-82
2024/01/01 07:51:35;;;;;;;9.30;1.30;;;8.10;99.90;;;;;;4959167;28;20042;-81
2024/01/01 07:54:01;;;;;;;12.20;1.83;;;8.10;99.90;;;;;;4976550;28;20102;-81
2024/01/01 07:56:27;;;;;;;11.43;1.83;;;8.10;99.90;;;;;;4976487;28;20034;-83
2024/01/01 07:58:53;;;;;;;8.60;1.10;;;8.10;99.90;;;;;;4995425;28;20034;-80
2024/01/01 08:01:20;;;;;;;12.65;2.10;;;8.10;99.90;;;;;;4993524;28;20073;-81
2024/01/01 08:03:46;;;;;;;14.77;1.77;;;8.10;99.90;;;;;;4976314;28;20034;-81
2024/01/01 08:06:12;;;;;;;15.27;1.67;;;8.10;99.90;;;;;;4972503;28;20066;-81
2024/01/01 08:08:38;;;;;;;12.00;1.60;;;8.10;99.90;;;;;;4989730;28;20057;-81
2024/01/01 08:11:04;;;;;;;15.73;1.52;;;8.10;99.90;;;;;;4993607;28;20034;-81
2024/01/01 08:13:30;;;;;;;14.50;1.58;;;8.10;99.90;;;;;;4976364;28;20468;-81
2024/01/01 08:15:55;;;;;;;10.55;1.48;;;8.10;99.90;;;;;;4959946;28;20045;-81
2024/01/01 08:18:21;;;;;;;12.43;1.55;;;8.10;99.90;;;;;;4975621;28;20084;-81
2024/01/01 08:20:47;;;;;;;14.88;1.85;;;8.10;99.90;;;;;;4959856;28;20031;-82
2024/01/01 08:23:12;;;;;;;15.85;1.85;;;8.10;99.90;;;;;;4994107;28;20049;-82
2024/01/01 08:25:39;;;;;;;12.95;1.52;;;8.10;99.90;;;;;;4959625;28;20084;-82
2024/01/01 08:28:05;;;;;;;9.98;1.65;;;8.10;99.90;;;;;;4959829;28;20037;-81
2024/01/01 08:30:31;;;;;;;9.88;1.98;;;8.10;99.90;;;;;;4975931;28;20062;-82
2024/01/01 08:32:57;;;;;;;11.75;2.08;;;8.20;99.90;;;;;;4976060;28;20038;-82
2024/01/01 08:35:23;;;;;;;10.40;1.50;;;8.20;99.90;;;;;;4976136;28;20034;-81
2024/01/01 08:37:49;;;;;;;13.30;1.85;;;8.20;99.90;;;;;;4959682;28;20041;-82
2024/01/01 08:40:15;;;;;;;12.75;2.17;;;8.20;99.90;;;;;;4957795;28;20139;-82
2024/01/01 08:42:41;;;;;;;11.55;2.25;;;8.20;99.90;;;;;;4993285;28;20472;-81
2024/01/01 08:45:07;;;;;;;15.35;2.53;;;8.20;99.90;;;;;;4993328;28;20049;-82
2024/01/01 08:47:32;;;;;;;11.18;1.73;;;8.20;99.90;;;;;;4992496;28;20496;-81
2024/01/01 08:49:59;;;;;;;11.35;2.33;;;8.20;99.90;;;;;;4975743;28;20066;-81
2024/01/01 08:52:24;;;;;;;10.98;1.63;;;8.10;99.90;;;;;;4988986;28;20042;-81
2024/01/01 08:54:50;;;;;;;12.27;1.92;;;8.10;99.90;;;;;;4993038;28;20039;-81
2024/01/01 08:57:16;;;;;;;11.57;1.52;;;8.10;99.90;;;;;;4996741;28;20030;-81
2024/01/01 08:59:41;;;;;;;14.55;2.22;;;8.10;99.90;;;;;;4996912;28;20058;-80
2024/01/01 09:02:08;;;;;;;12.73;1.95;;;8.10;99.90;;;;;;4979163;28;20062;-81
2024/01/01 09:04:34;;;;;;;12.70;2.15;;;8.10;99.90;;;;;;4979100;28;20049;-81
2024/01/01 09:07:01;;;;;;;10.43;1.88;;;8.10;99.90;;;;;;4996125;28;20030;-81
2024/01/01 09:09:27;;;;;;;12.27;1.60;;;8.10;99.90;;;;;;4979104;28;20468;-81
2024/01/01 09:11:53;;;;;;;9.05;1.48;;;8.10;99.90;;;;;;4979276;28;20042;-79
2024/01/01 09:14:18;;;;;;;14.82;2.30;;;8.10;99.90;;;;;;4963192;28;20493;-75
2024/01/01 09:16:44;;;;;;;8.15;1.70;;;8.10;99.90;;;;;;4979004;28;20125;-78
2024/01/01 09:19:10;;;;;;;13.27;1.83;;;8.10;99.90;;;;;;4996101;28;20085;-76
2024/01/01 09:21:36;;;;;;;11.98;1.40;;;8.10;99.90;;;;;;4979728;28;20034;-83
2024/01/01 09:24:02;;;;;;;8.65;1.35;;;8.00;99.90;;;;;;4980107;28;20030;-83
2024/01/01 09:26:29;;;;;;;6.65;1.27;;;8.10;99.90;;;;;;4981991;28;20031;-83
2024/01/01 09:28:56;;;;;;;9.02;1.73;;;8.10;99.90;;;;;;4981025;28;20027;-77
2024/01/01 09:31:22;;;;;;;11.35;1.65;;;8.10;99.90;;;;;;4997420;28;20026;-82
2024/01/01 09:33:47;;;;;;;9.48;1.58;;;8.10;99.90;;;;;;4981117;28;20068;-80
2024/01/01 09:36:13;;;;;;;10.05;1.80;;;8.20;99.90;;;;;;5003900;28;20401;-83
2024/01/01 09:38:39;;;;;;;11.25;1.55;;;8.20;99.90;;;;;;4997070;28;20089;-77
2024/01/01 09:41:10;;;;;;;14.10;1.75;;;8.20;99.90;;;;;;4996762;28;20030;-76
2024/01/01 09:43:35;;;;;;;10.88;1.58;;;8.30;99.90;;;;;;4980905;28;20432;-79
2024/01/01 09:46:01;;;;;;;6.78;0.90;;;8.30;99.90;;;;;;4979464;28;20054;-76
2024/01/01 09:48:27;;;;;;;9.18;1.50;;;8.30;99.90;;;;;;4978971;28;20475;-76
2024/01/01 09:50:52;;;;;;;10.60;1.95;;;8.30;99.90;;;;;;4978654;28;20089;-76
2024/01/01 09:53:18;;;;;;;9.75;1.70;;;8.30;99.90;;;;;;4995741;28;20109;-77
2024/01/01 09:55:54;;;;;;;11.52;1.60;;;8.30;99.90;;;;;;4995440;28;20167;-77
2024/01/01 09:58:20;;;;;;;13.10;1.20;;;8.30;99.90;;;;;;4962251;28;20035;-77
2024/01/01 10:00:48;;;;;;;9.30;1.42;;;8.30;99.90;;;;;;4995059;28;20038;-79
2024/01/01 10:03:14;;;;;;;7.50;1.40;;;8.40;99.90;;;;;;4987967;28;20153;-78
2024/01/01 10:05:41;;;;;;;9.07;1.33;;;8.30;99.90;;;;;;4993548;28;20135;-77
2024/01/01 10:08:11;;;;;;;8.88;1.42;;;8.30;99.90;;;;;;4995637;28;20030;-81
2024/01/01 10:10:38;;;;;;;10.57;1.85;;;8.40;99.90;;;;;;4996539;28;20480;-77
2024/01/01 10:13:14;;;;;;;7.05;1.10;;;8.40;99.90;;;;;;4992250;28;20022;-77
2024/01/01 10:15:41;;;;;;;13.85;1.50;;;8.40;99.90;;;;;;4995243;28;20038;-75
2024/01/01 10:18:12;;;;;;;7.38;0.82;;;8.50;99.90;;;;;;4994032;28;20026;-76
2024/01/01 10:20:39;;;;;;;7.80;1.00;;;8.50;99.90;;;;;;4996821;28;20089;-80
2024/01/01 10:23:20;;;;;;;10.80;1.63;;;8.50;99.90;;;;;;4999829;28;20034;-78
2024/01/01 10:25:47;;;;;;;6.88;1.13;;;8.50;99.90;;;;;;5003773;28;20176;-76
2024/01/01 10:28:16;;;;;;;8.98;0.85;;;8.50;99.90;;;;;;4977679;28;20469;-77
2024/01/01 10:30:46;;;;;;;6.55;0.90;;;8.50;99.90;;;;;;4995356;28;20468;-77
2024/01/01 10:33:14;;;;;;;7.85;1.08;;;8.50;99.90;;;;;;4995405;28;20061;-77
2024/01/01 10:35:43;;;;;;;4.82;1.10;;;8.50;99.90;;;;;;4994941;28;20042;-81
2024/01/01 10:38:11;;;;;;;8.27;0.90;;;8.50;99.90;;;;;;5004294;28;20108;-80
2024/01/01 10:40:37;;;;;;;8.65;2.20;;;8.50;99.90;;;;;;5014638;28;20006;-79
2024/01/01 10:43:04;;;;;;;11.73;1.30;;;8.50;99.90;;;;;;5011288;28;20034;-79
2024/01/01 10:45:30;;;;;;;8.10;1.00;;;8.60;99.90;;;;;;5013282;28;20023;-80
2024/01/01 10:47:59;;;;;;;8.38;1.20;;;8.60;99.90;;;;;;5013325;28;20069;-80
2024/01/01 10:50:30;;;;;;;8.65;1.20;;;8.60;99.90;;;;;;5005427;28;20041;-80
2024/01/01 10:53:30;;;;;;;9.95;1.77;;;8.60;99.90;;;;;;4988470;28;20037;-80
2024/01/01 10:56:35;;;;;;;7.45;1.50;;;8.60;99.90;;;;;;4989062;28;20489;-80
2024/01/01 10:59:20;;;;;;;9.25;1.30;;;8.60;99.90;;;;;;4991981;28;20045;-79
2024/01/01 11:01:50;;;;;;;9.48;1.80;;;8.60;99.90;;;;;;4994863;28;20026;-77
2024/01/01 11:04:19;;;;;;;10.95;1.77;;;8.60;99.90;;;;;;4993647;28;20030;-76
2024/01/01 11:06:45;;;;;;;9.13;1.20;;;8.70;99.90;;;;;;4994492;28;20365;-75
2024/01/01 11:09:20;;;;;;;6.57;1.35;;;8.80;99.90;;;;;;4991363;28;20045;-75
2024/01/01 11:11:48;;;;;;;11.23;1.40;;;8.90;99.90;;;;;;4993385;28;20018;-76
2024/01/01 11:14:36;;;;;;;10.43;1.30;;;9.00;99.90;;;;;;4990783;28;20034;-76
2024/01/01 11:17:10;;;;;;;7.63;1.25;;;9.10;99.90;;;;;;4992484;28;20022;-76
2024/01/01 11:19:43;;;;;;;7.00;1.30;;;9.10;99.90;;;;;;4972510;28;20050;-76
2024/01/01 11:22:20;;;;;;;10.27;1.63;;;9.00;99.90;;;;;;4991807;28;20527;-78
2024/01/01 11:24:47;;;;;;;9.55;1.83;;;9.00;99.90;;;;;;4976405;28;20137;-78
2024/01/01 11:27:28;;;;;;;10.30;1.42;;;9.00;99.90;;;;;;4992798;28;20113;-78
2024/01/01 11:30:00;;;;;;;11.68;1.83;;;8.90;99.90;;;;;;4991583;28;20476;-78
2024/01/01 11:32:25;;;;;;;7.60;0.95;;;8.90;99.90;;;;;;4993375;28;20113;-78
2024/01/01 11:35:03;;;;;;;6.63;1.13;;;8.90;99.90;;;;;;4991711;28;20109;-78
2024/01/01 11:37:29;;;;;;;7.70;1.70;;;8.90;99.90;;;;;;4991820;28;20473;-76
2024/01/01 11:39:59;;;;;;;7.20;0.98;;;8.90;99.90;;;;;;4959095;28;20061;-81
2024/01/01 11:42:25;;;;;;;9.27;1.02;;;8.90;99.90;;;;;;4991558;28;20512;-80
2024/01/01 11:45:03;;;;;;;13.48;1.73;;;8.90;99.90;;;;;;4974543;28;20117;-81
2024/01/01 11:47:29;;;;;;;7.25;1.27;;;9.00;99.90;;;;;;4974699;28;20495;-81
2024/01/01 11:49:54;;;;;;;10.80;0.70;;;9.00;99.90;;;;;;4959710;28;20030;-81
2024/01/01 11:52:20;;;;;;;8.95;1.30;;;9.00;99.90;;;;;;4992533;28;20453;-80
2024/01/01 11:54:48;;;;;;;10.13;1.35;;;9.10;99.90;;;;;;4989194;28;20034;-81
2024/01/01 11:57:13;;;;;;;11.38;1.58;;;9.10;99.90;;;;;;4956643;28;20053;-80
2024/01/01 11:59:39;;;;;;;9.02;1.38;;;9.10;99.90;;;;;;4957883;28;20034;-81
2024/01/01 12:02:06;;;;;;;10.75;1.02;;;9.20;99.90;;;;;;4991759;28;20096;-81
2024/01/01 12:04:32;;;;;;;7.93;0.98;;;9.30;99.90;;;;;;4973725;28;20034;-81
2024/01/01 12:06:57;;;;;;;10.23;1.27;;;9.30;99.90;;;;;;4992635;28;20168;-82
2024/01/01 12:09:24;;;;;;;6.75;1.10;;;9.30;99.90;;;;;;4994933;28;20570;-79
2024/01/01 12:11:50;;;;;;;12.75;1.25;;;9.20;99.90;;;;;;4999497;28;20389;-80
2024/01/01 12:14:24;;;;;;;9.00;1.45;;;9.20;99.90;;;;;;4997686;28;20039;-80
2024/01/01 12:16:50;;;;;;;10.35;1.25;;;9.10;99.90;;;;;;4996472;28;20109;-80
2024/01/01 12:19:22;;;;;;;9.90;1.30;;;9.10;99.90;;;;;;4991439;28;20142;-81
2024/01/01 12:21:49;;;;;;;15.13;1.52;;;9.10;99.90;;;;;;4979198;28;20038;-78
2024/01/01 12:24:16;;;;;;;13.82;2.15;;;9.00;99.90;;;;;;4978343;28;20042;-79
2024/01/01 12:26:44;;;;;;;12.75;1.90;;;9.00;99.90;;;;;;4996395;28;20033;-80
2024/01/01 12:29:19;;;;;;;14.63;1.48;;;9.00;99.90;;;;;;4990730;28;20253;-82
2024/01/01 12:31:46;;;;;;;10.02;1.17;;;9.10;99.90;;;;;;4979158;28;20365;-82
2024/01/01 12:34:18;;;;;;;7.75;1.13;;;9.10;99.90;;;;;;4979121;28;20501;-83
2024/01/01 12:36:46;;;;;;;7.45;1.45;;;9.20;99.90;;;;;;4960917;28;20393;-82
2024/01/01 12:39:15;;;;;;;6.45;0.82;;;9.40;99.90;;;;;;4979054;28;20489;-82
2024/01/01 12:41:41;;;;;;;11.10;1.75;;;9.50;99.90;;;;;;4996350;28;20061;-82
2024/01/01 12:44:07;;;;;;;11.55;1.48;;;9.50;99.90;;;;;;4996554;28;20035;-82
2024/01/01 12:46:33;;;;;;;11.38;2.10;;;9.50;99.90;;;;;;4996266;28;20041;-82
2024/01/01 12:48:59;;;;;;;12.50;2.05;;;9.50;99.90;;;;;;4995680;28;20038;-82